sensor_id;sensor_type;location;lat;lon;timestamp;temperature;humidity
40123;DHT22;25832;45.490;4.912;2023-07-29T00:01:35;22.50;99.90
40123;DHT22;25832;45.490;4.912;2023-07-29T00:04:02;22.40;99.90
40123;DHT22;25832;45.490;4.912;2023-07-29T00:06:27;22.40;99.90
40123;DHT22;25832;45.490;4.912;2023-07-29T00:08:53;22.30;99.90
40123;DHT22;25832;45.490;4.912;2023-07-29T00:11:18;22.20;99.90
40123;DHT22;25832;45.490;4.912;2023-07-29T00:13:44;22.20;99.90
40123;DHT22;25832;45.490;4.912;2023-07-29T00:16:10;22.10;99.90
40123;DHT22;25832;45.490;4.912;2023-07-29T00:18:36;22.10;99.90
40123;DHT22;25832;45.490;4.912;2023-07-29T00:21:01;22.10;99.90
40123;DHT22;25832;45.490;4.912;2023-07-29T00:23:27;22.10;99.90
40123;DHT22;25832;45.490;4.912;2023-07-29T00:25:53;22.10;99.90
40123;DHT22;25832;45.490;4.912;2023-07-29T00:28:18;22.10;99.90
40123;DHT22;25832;45.490;4.912;2023-07-29T00:30:44;22.10;99.90
40123;DHT22;25832;45.490;4.912;2023-07-29T00:33:09;22.10;99.90
40123;DHT22;25832;45.490;4.912;2023-07-29T00:35:35;22.00;99.90
40123;DHT22;25832;45.490;4.912;2023-07-29T00:38:01;22.00;99.90
40123;DHT22;25832;45.490;4.912;2023-07-29T00:40:28;22.00;99.90
40123;DHT22;25832;45.490;4.912;2023-07-29T00:42:54;22.00;99.90
40123;DHT22;25832;45.490;4.912;2023-07-29T00:45:20;22.00;99.90
40123;DHT22;25832;45.490;4.912;2023-07-29T00:47:46;22.00;99.90
40123;DHT22;25832;45.490;4.912;2023-07-29T00:50:13;22.10;99.90
40123;DHT22;25832;45.490;4.912;2023-07-29T00:52:39;22.10;99.90
40123;DHT22;25832;45.490;4.912;2023-07-29T00:55:06;22.10;99.90
40123;DHT22;25832;45.490;4.912;2023-07-29T00:57:32;22.10;99.90
40123;DHT22;25832;45.490;4.912;2023-07-29T00:59:59;22.10;99.90
40123;DHT22;25832;45.490;4.912;2023-07-29T01:02:24;22.20;99.90
40123;DHT22;25832;45.490;4.912;2023-07-29T01:04:55;22.10;99.90
40123;DHT22;25832;45.490;4.912;2023-07-29T01:07:39;22.20;99.90
40123;DHT22;25832;45.490;4.912;2023-07-29T01:13:06;22.30;99.90
40123;DHT22;25832;45.490;4.912;2023-07-29T01:16:17;22.20;99.90
40123;DHT22;25832;45.490;4.912;2023-07-29T01:18:36;22.30;99.90
40123;DHT22;25832;45.490;4.912;2023-07-29T01:21:07;22.30;99.90
40123;DHT22;25832;45.490;4.912;2023-07-29T01:23:34;22.20;99.90
40123;DHT22;25832;45.490;4.912;2023-07-29T01:26:00;22.20;99.90
40123;DHT22;25832;45.490;4.912;2023-07-29T01:28:27;22.20;99.90
40123;DHT22;25832;45.490;4.912;2023-07-29T01:31:26;22.10;99.90
40123;DHT22;25832;45.490;4.912;2023-07-29T01:33:59;22.10;99.90
40123;DHT22;25832;45.490;4.912;2023-07-29T01:36:28;22.10;99.90
40123;DHT22;25832;45.490;4.912;2023-07-29T01:38:55;22.00;99.90
40123;DHT22;25832;45.490;4.912;2023-07-29T01:41:22;21.90;99.90
40123;DHT22;25832;45.490;4.912;2023-07-29T01:43:48;21.90;99.90
40123;DHT22;25832;45.490;4.912;2023-07-29T01:46:15;21.80;99.90
40123;DHT22;25832;45.490;4.912;2023-07-29T01:48:41;21.80;99.90
40123;DHT22;25832;45.490;4.912;2023-07-29T01:51:07;21.80;99.90
40123;DHT22;25832;45.490;4.912;2023-07-29T01:53:33;21.70;99.90
40123;DHT22;25832;45.490;4.912;2023-07-29T01:55:59;21.70;99.90
40123;DHT22;25832;45.490;4.912;2023-07-29T01:58:25;21.70;99.90
40123;DHT22;25832;45.490;4.912;2023-07-29T02:00:50;21.70;99.90
40123;DHT22;25832;45.490;4.912;2023-07-29T02:03:16;21.60;99.90
40123;DHT22;25832;45.490;4.912;2023-07-29T02:05:42;21.60;99.90
40123;DHT22;25832;45.490;4.912;2023-07-29T02:08:09;21.60;99.90
40123;DHT22;25832;45.490;4.912;2023-07-29T02:10:35;21.60;99.90
40123;DHT22;25832;45.490;4.912;2023-07-29T02:13:01;21.60;99.90
40123;DHT22;25832;45.490;4.912;2023-07-29T02:15:27;21.60;99.90
40123;DHT22;25832;45.490;4.912;2023-07-29T02:17:53;21.50;99.90
40123;DHT22;25832;45.490;4.912;2023-07-29T02:20:19;21.60;99.90
40123;DHT22;25832;45.490;4.912;2023-07-29T02:22:45;21.50;99.90
40123;DHT22;25832;45.490;4.912;2023-07-29T02:25:10;21.50;99.90
40123;DHT22;25832;45.490;4.912;2023-07-29T02:27:36;21.50;99.90
40123;DHT22;25832;45.490;4.912;2023-07-29T02:30:02;21.50;99.90
40123;DHT22;25832;45.490;4.912;2023-07-29T02:32:28;21.50;99.90
40123;DHT22;25832;45.490;4.912;2023-07-29T02:34:54;21.50;99.90
40123;DHT22;25832;45.490;4.912;2023-07-29T02:37:20;21.50;99.90
40123;DHT22;25832;45.490;4.912;2023-07-29T02:39:45;21.50;99.90
40123;DHT22;25832;45.490;4.912;2023-07-29T02:42:11;21.50;99.90
40123;DHT22;25832;45.490;4.912;2023-07-29T02:44:37;21.50;99.90
40123;DHT22;25832;45.490;4.912;2023-07-29T02:47:03;21.50;99.90
40123;DHT22;25832;45.490;4.912;2023-07-29T02:49:29;21.40;99.90
40123;DHT22;25832;45.490;4.912;2023-07-29T02:51:54;21.40;99.90
40123;DHT22;25832;45.490;4.912;2023-07-29T02:54:20;21.40;99.90
40123;DHT22;25832;45.490;4.912;2023-07-29T02:56:46;21.30;99.90
40123;DHT22;25832;45.490;4.912;2023-07-29T02:59:11;21.30;99.90
40123;DHT22;25832;45.490;4.912;2023-07-29T03:01:37;21.30;99.90
40123;DHT22;25832;45.490;4.912;2023-07-29T03:04:03;21.30;99.90
40123;DHT22;25832;45.490;4.912;2023-07-29T03:06:29;21.20;99.90
40123;DHT22;25832;45.490;4.912;2023-07-29T03:08:54;21.20;99.90
40123;DHT22;25832;45.490;4.912;2023-07-29T03:11:20;21.20;99.90
40123;DHT22;25832;45.490;4.912;2023-07-29T03:13:45;21.10;99.90
40123;DHT22;25832;45.490;4.912;2023-07-29T03:16:16;21.10;99.90
40123;DHT22;25832;45.490;4.912;2023-07-29T03:18:43;21.10;99.90
40123;DHT22;25832;45.490;4.912;2023-07-29T03:21:10;21.10;99.90
40123;DHT22;25832;45.490;4.912;2023-07-29T03:23:36;21.00;99.90
40123;DHT22;25832;45.490;4.912;2023-07-29T03:26:03;21.00;99.90
40123;DHT22;25832;45.490;4.912;2023-07-29T03:28:35;21.00;99.90
40123;DHT22;25832;45.490;4.912;2023-07-29T03:31:02;20.90;99.90
40123;DHT22;25832;45.490;4.912;2023-07-29T03:33:28;21.00;99.90
40123;DHT22;25832;45.490;4.912;2023-07-29T03:35:54;21.00;99.90
40123;DHT22;25832;45.490;4.912;2023-07-29T03:38:19;21.00;99.90
40123;DHT22;25832;45.490;4.912;2023-07-29T03:40:45;21.00;99.90
40123;DHT22;25832;45.490;4.912;2023-07-29T03:43:11;20.90;99.90
40123;DHT22;25832;45.490;4.912;2023-07-29T03:45:37;20.90;99.90
40123;DHT22;25832;45.490;4.912;2023-07-29T03:48:04;20.90;99.90
40123;DHT22;25832;45.490;4.912;2023-07-29T03:50:29;20.90;99.90
40123;DHT22;25832;45.490;4.912;2023-07-29T03:52:56;21.00;99.90
40123;DHT22;25832;45.490;4.912;2023-07-29T03:55:22;21.00;99.90
40123;DHT22;25832;45.490;4.912;2023-07-29T03:57:47;21.00;99.90
40123;DHT22;25832;45.490;4.912;2023-07-29T04:00:13;21.00;99.90
40123;DHT22;25832;45.490;4.912;2023-07-29T04:02:39;21.10;99.90
40123;DHT22;25832;45.490;4.912;2023-07-29T04:05:06;21.00;99.90
40123;DHT22;25832;45.490;4.912;2023-07-29T04:07:34;21.00;99.90
40123;DHT22;25832;45.490;4.912;2023-07-29T04:09:59;21.00;99.90
40123;DHT22;25832;45.490;4.912;2023-07-29T04:12:26;21.00;99.90
40123;DHT22;25832;45.490;4.912;2023-07-29T04:14:52;21.00;99.90
40123;DHT22;25832;45.490;4.912;2023-07-29T04:17:17;21.00;99.90
40123;DHT22;25832;45.490;4.912;2023-07-29T04:19:43;21.10;99.90
40123;DHT22;25832;45.490;4.912;2023-07-29T04:22:09;21.00;99.90
40123;DHT22;25832;45.490;4.912;2023-07-29T04:24:34;21.10;99.90
40123;DHT22;25832;45.490;4.912;2023-07-29T04:27:00;21.10;99.90
40123;DHT22;25832;45.490;4.912;2023-07-29T04:29:25;21.10;99.90
40123;DHT22;25832;45.490;4.912;2023-07-29T04:31:52;21.20;99.90
40123;DHT22;25832;45.490;4.912;2023-07-29T04:34:18;21.20;99.90
40123;DHT22;25832;45.490;4.912;2023-07-29T04:36:45;21.10;99.90
40123;DHT22;25832;45.490;4.912;2023-07-29T04:39:11;21.10;99.90
40123;DHT22;25832;45.490;4.912;2023-07-29T04:41:36;21.10;99.90
40123;DHT22;25832;45.490;4.912;2023-07-29T04:44:02;21.10;99.90
40123;DHT22;25832;45.490;4.912;2023-07-29T04:46:28;21.10;99.90
40123;DHT22;25832;45.490;4.912;2023-07-29T04:48:53;21.00;99.90
40123;DHT22;25832;45.490;4.912;2023-07-29T04:51:19;21.00;99.90
40123;DHT22;25832;45.490;4.912;2023-07-29T04:53:45;21.00;99.90
40123;DHT22;25832;45.490;4.912;2023-07-29T04:56:11;21.00;99.90
40123;DHT22;25832;45.490;4.912;2023-07-29T04:58:36;21.00;99.90
40123;DHT22;25832;45.490;4.912;2023-07-29T05:01:03;21.10;99.90
40123;DHT22;25832;45.490;4.912;2023-07-29T05:03:29;21.10;99.90
40123;DHT22;25832;45.490;4.912;2023-07-29T05:05:54;21.00;99.90
40123;DHT22;25832;45.490;4.912;2023-07-29T05:08:21;21.00;99.90
40123;DHT22;25832;45.490;4.912;2023-07-29T05:10:50;21.00;99.90
40123;DHT22;25832;45.490;4.912;2023-07-29T05:13:17;21.00;99.90
40123;DHT22;25832;45.490;4.912;2023-07-29T05:15:43;20.90;99.90
40123;DHT22;25832;45.490;4.912;2023-07-29T05:18:08;20.90;99.90
40123;DHT22;25832;45.490;4.912;2023-07-29T05:20:34;20.90;99.90
40123;DHT22;25832;45.490;4.912;2023-07-29T05:23:00;20.90;99.90
40123;DHT22;25832;45.490;4.912;2023-07-29T05:25:26;20.90;99.90
40123;DHT22;25832;45.490;4.912;2023-07-29T05:27:52;20.90;99.90
40123;DHT22;25832;45.490;4.912;2023-07-29T05:30:17;21.00;99.90
40123;DHT22;25832;45.490;4.912;2023-07-29T05:32:43;21.00;99.90
40123;DHT22;25832;45.490;4.912;2023-07-29T05:35:09;21.00;99.90
40123;DHT22;25832;45.490;4.912;2023-07-29T05:37:37;21.00;99.90
40123;DHT22;25832;45.490;4.912;2023-07-29T05:40:03;21.00;99.90
40123;DHT22;25832;45.490;4.912;2023-07-29T05:42:29;21.10;99.90
40123;DHT22;25832;45.490;4.912;2023-07-29T05:44:55;21.10;99.90
40123;DHT22;25832;45.490;4.912;2023-07-29T05:47:20;21.30;99.90
40123;DHT22;25832;45.490;4.912;2023-07-29T05:49:46;21.60;99.90
40123;DHT22;25832;45.490;4.912;2023-07-29T05:52:12;22.00;99.90
40123;DHT22;25832;45.490;4.912;2023-07-29T05:54:37;22.40;99.90
40123;DHT22;25832;45.490;4.912;2023-07-29T05:57:03;22.80;99.90
40123;DHT22;25832;45.490;4.912;2023-07-29T05:59:29;23.00;99.90
40123;DHT22;25832;45.490;4.912;2023-07-29T06:01:55;23.10;99.90
40123;DHT22;25832;45.490;4.912;2023-07-29T06:04:21;23.10;99.90
40123;DHT22;25832;45.490;4.912;2023-07-29T06:06:47;23.10;99.90
40123;DHT22;25832;45.490;4.912;2023-07-29T06:09:12;23.10;99.90
40123;DHT22;25832;45.490;4.912;2023-07-29T06:11:38;23.00;99.90
40123;DHT22;25832;45.490;4.912;2023-07-29T06:14:04;22.90;99.90
40123;DHT22;25832;45.490;4.912;2023-07-29T06:16:29;23.00;99.90
40123;DHT22;25832;45.490;4.912;2023-07-29T06:18:55;22.90;99.90
40123;DHT22;25832;45.490;4.912;2023-07-29T06:21:20;22.90;99.90
40123;DHT22;25832;45.490;4.912;2023-07-29T06:23:47;22.80;99.90
40123;DHT22;25832;45.490;4.912;2023-07-29T06:26:12;22.80;99.90
40123;DHT22;25832;45.490;4.912;2023-07-29T06:28:38;22.80;99.90
40123;DHT22;25832;45.490;4.912;2023-07-29T06:31:04;22.80;99.90
40123;DHT22;25832;45.490;4.912;2023-07-29T06:33:29;22.80;99.90
40123;DHT22;25832;45.490;4.912;2023-07-29T06:35:55;22.80;99.90
40123;DHT22;25832;45.490;4.912;2023-07-29T06:38:21;22.80;99.90
40123;DHT22;25832;45.490;4.912;2023-07-29T06:40:50;22.80;99.90
40123;DHT22;25832;45.490;4.912;2023-07-29T06:43:16;22.80;99.90
40123;DHT22;25832;45.490;4.912;2023-07-29T06:45:42;22.90;99.90
40123;DHT22;25832;45.490;4.912;2023-07-29T06:48:08;22.90;99.90
40123;DHT22;25832;45.490;4.912;2023-07-29T06:50:33;23.00;99.90
40123;DHT22;25832;45.490;4.912;2023-07-29T06:52:59;23.00;99.90
40123;DHT22;25832;45.490;4.912;2023-07-29T06:55:24;23.00;99.90
40123;DHT22;25832;45.490;4.912;2023-07-29T06:57:50;22.90;99.90
40123;DHT22;25832;45.490;4.912;2023-07-29T07:00:16;22.90;99.90
40123;DHT22;25832;45.490;4.912;2023-07-29T07:02:41;22.90;99.90
40123;DHT22;25832;45.490;4.912;2023-07-29T07:05:07;22.90;99.90
40123;DHT22;25832;45.490;4.912;2023-07-29T07:07:33;23.00;99.90
40123;DHT22;25832;45.490;4.912;2023-07-29T07:09:58;23.10;99.90
40123;DHT22;25832;45.490;4.912;2023-07-29T07:12:24;23.30;99.90
40123;DHT22;25832;45.490;4.912;2023-07-29T07:14:50;23.40;99.90
40123;DHT22;25832;45.490;4.912;2023-07-29T07:17:15;23.50;99.90
40123;DHT22;25832;45.490;4.912;2023-07-29T07:19:41;23.60;99.90
40123;DHT22;25832;45.490;4.912;2023-07-29T07:22:07;23.60;99.90
40123;DHT22;25832;45.490;4.912;2023-07-29T07:24:33;23.60;99.90
40123;DHT22;25832;45.490;4.912;2023-07-29T07:26:58;23.50;99.90
40123;DHT22;25832;45.490;4.912;2023-07-29T07:29:24;23.50;99.90
40123;DHT22;25832;45.490;4.912;2023-07-29T07:31:51;23.40;99.90
40123;DHT22;25832;45.490;4.912;2023-07-29T07:34:21;23.30;99.90
40123;DHT22;25832;45.490;4.912;2023-07-29T07:36:46;23.30;99.90
40123;DHT22;25832;45.490;4.912;2023-07-29T07:39:12;23.30;99.90
40123;DHT22;25832;45.490;4.912;2023-07-29T07:41:38;23.30;99.90
40123;DHT22;25832;45.490;4.912;2023-07-29T07:44:04;23.40;99.90
40123;DHT22;25832;45.490;4.912;2023-07-29T07:46:30;23.60;99.90
40123;DHT22;25832;45.490;4.912;2023-07-29T07:48:55;23.60;99.90
40123;DHT22;25832;45.490;4.912;2023-07-29T07:51:21;23.80;99.90
40123;DHT22;25832;45.490;4.912;2023-07-29T07:53:46;23.80;99.90
40123;DHT22;25832;45.490;4.912;2023-07-29T07:56:12;23.90;99.90
40123;DHT22;25832;45.490;4.912;2023-07-29T07:58:38;24.10;99.90
40123;DHT22;25832;45.490;4.912;2023-07-29T08:01:05;24.10;99.90
40123;DHT22;25832;45.490;4.912;2023-07-29T08:03:31;24.20;99.90
40123;DHT22;25832;45.490;4.912;2023-07-29T08:05:57;24.20;99.90
40123;DHT22;25832;45.490;4.912;2023-07-29T08:08:24;24.30;99.90
40123;DHT22;25832;45.490;4.912;2023-07-29T08:10:50;24.30;99.90
40123;DHT22;25832;45.490;4.912;2023-07-29T08:13:16;24.30;99.90
40123;DHT22;25832;45.490;4.912;2023-07-29T08:15:41;24.20;99.90
40123;DHT22;25832;45.490;4.912;2023-07-29T08:18:10;24.20;99.90
40123;DHT22;25832;45.490;4.912;2023-07-29T08:20:36;24.10;99.90
40123;DHT22;25832;45.490;4.912;2023-07-29T08:23:02;24.10;99.90
40123;DHT22;25832;45.490;4.912;2023-07-29T08:25:29;24.20;99.90
40123;DHT22;25832;45.490;4.912;2023-07-29T08:27:54;24.10;99.90
40123;DHT22;25832;45.490;4.912;2023-07-29T08:30:20;24.10;99.90
40123;DHT22;25832;45.490;4.912;2023-07-29T08:32:46;24.10;99.90
40123;DHT22;25832;45.490;4.912;2023-07-29T08:35:11;24.10;99.90
40123;DHT22;25832;45.490;4.912;2023-07-29T08:37:37;24.00;99.90
40123;DHT22;25832;45.490;4.912;2023-07-29T08:40:03;24.10;99.90
40123;DHT22;25832;45.490;4.912;2023-07-29T08:42:31;24.00;99.90
40123;DHT22;25832;45.490;4.912;2023-07-29T08:45:07;24.00;99.90
40123;DHT22;25832;45.490;4.912;2023-07-29T08:47:37;23.90;99.90
40123;DHT22;25832;45.490;4.912;2023-07-29T08:50:03;24.00;99.90
40123;DHT22;25832;45.490;4.912;2023-07-29T08:52:29;23.90;99.90
40123;DHT22;25832;45.490;4.912;2023-07-29T08:54:57;23.90;99.90
40123;DHT22;25832;45.490;4.912;2023-07-29T08:57:23;23.90;99.90
40123;DHT22;25832;45.490;4.912;2023-07-29T08:59:49;23.90;99.90
40123;DHT22;25832;45.490;4.912;2023-07-29T09:02:15;23.90;99.90
40123;DHT22;25832;45.490;4.912;2023-07-29T09:04:41;23.90;99.90
40123;DHT22;25832;45.490;4.912;2023-07-29T09:07:08;23.90;99.90
40123;DHT22;25832;45.490;4.912;2023-07-29T09:09:34;23.80;99.90
40123;DHT22;25832;45.490;4.912;2023-07-29T09:11:59;23.70;99.90
40123;DHT22;25832;45.490;4.912;2023-07-29T09:14:25;23.70;99.90
40123;DHT22;25832;45.490;4.912;2023-07-29T09:16:52;23.60;99.90
40123;DHT22;25832;45.490;4.912;2023-07-29T09:19:18;23.50;99.90
40123;DHT22;25832;45.490;4.912;2023-07-29T09:21:46;23.50;99.90
40123;DHT22;25832;45.490;4.912;2023-07-29T09:24:16;23.50;99.90
40123;DHT22;25832;45.490;4.912;2023-07-29T09:26:51;23.60;99.90
40123;DHT22;25832;45.490;4.912;2023-07-29T09:29:22;23.60;99.90
40123;DHT22;25832;45.490;4.912;2023-07-29T09:31:49;23.50;99.90
40123;DHT22;25832;45.490;4.912;2023-07-29T09:34:15;23.50;99.90
40123;DHT22;25832;45.490;4.912;2023-07-29T09:36:42;23.50;99.90
40123;DHT22;25832;45.490;4.912;2023-07-29T09:39:12;23.40;99.90
40123;DHT22;25832;45.490;4.912;2023-07-29T09:41:38;23.40;99.90
40123;DHT22;25832;45.490;4.912;2023-07-29T09:44:04;23.50;99.90
40123;DHT22;25832;45.490;4.912;2023-07-29T09:46:36;23.40;99.90
40123;DHT22;25832;45.490;4.912;2023-07-29T09:49:06;23.50;99.90
40123;DHT22;25832;45.490;4.912;2023-07-29T09:51:33;23.50;99.90
40123;DHT22;25832;45.490;4.912;2023-07-29T09:54:03;23.70;99.90
40123;DHT22;25832;45.490;4.912;2023-07-29T09:56:28;23.80;99.90
40123;DHT22;25832;45.490;4.912;2023-07-29T09:58:57;23.80;99.90
40123;DHT22;25832;45.490;4.912;2023-07-29T10:01:23;24.10;99.90
40123;DHT22;25832;45.490;4.912;2023-07-29T10:03:49;24.20;99.90
40123;DHT22;25832;45.490;4.912;2023-07-29T10:06:15;24.40;99.90
40123;DHT22;25832;45.490;4.912;2023-07-29T10:08:42;24.60;99.90
40123;DHT22;25832;45.490;4.912;2023-07-29T10:11:09;24.80;99.90
40123;DHT22;25832;45.490;4.912;2023-07-29T10:13:36;25.00;99.90
40123;DHT22;25832;45.490;4.912;2023-07-29T10:16:03;25.00;99.40
40123;DHT22;25832;45.490;4.912;2023-07-29T10:18:29;24.90;99.20
40123;DHT22;25832;45.490;4.912;2023-07-29T10:20:57;24.80;99.60
40123;DHT22;25832;45.490;4.912;2023-07-29T10:23:25;24.80;99.70
40123;DHT22;25832;45.490;4.912;2023-07-29T10:26:05;24.80;99.60
40123;DHT22;25832;45.490;4.912;2023-07-29T10:28:38;24.80;99.40
40123;DHT22;25832;45.490;4.912;2023-07-29T10:31:05;25.00;99.20
40123;DHT22;25832;45.490;4.912;2023-07-29T10:33:32;25.00;98.70
40123;DHT22;25832;45.490;4.912;2023-07-29T10:35:59;25.10;99.50
40123;DHT22;25832;45.490;4.912;2023-07-29T10:38:25;25.10;99.90
40123;DHT22;25832;45.490;4.912;2023-07-29T10:40:53;25.10;99.30
40123;DHT22;25832;45.490;4.912;2023-07-29T10:43:32;24.90;99.40
40123;DHT22;25832;45.490;4.912;2023-07-29T10:46:15;24.70;99.60
40123;DHT22;25832;45.490;4.912;2023-07-29T10:48:44;24.60;99.90
40123;DHT22;25832;45.490;4.912;2023-07-29T10:51:26;24.60;99.90
40123;DHT22;25832;45.490;4.912;2023-07-29T10:53:59;24.50;99.90
40123;DHT22;25832;45.490;4.912;2023-07-29T10:56:33;24.50;99.90
40123;DHT22;25832;45.490;4.912;2023-07-29T11:01:39;24.10;99.90
40123;DHT22;25832;45.490;4.912;2023-07-29T11:17:48;23.80;99.90
40123;DHT22;25832;45.490;4.912;2023-07-29T11:20:15;23.80;99.90
40123;DHT22;25832;45.490;4.912;2023-07-29T11:22:41;23.80;99.90
40123;DHT22;25832;45.490;4.912;2023-07-29T11:25:08;23.70;99.90
40123;DHT22;25832;45.490;4.912;2023-07-29T11:27:35;23.80;99.90
40123;DHT22;25832;45.490;4.912;2023-07-29T11:30:05;23.70;99.90
40123;DHT22;25832;45.490;4.912;2023-07-29T11:32:31;23.70;99.90
40123;DHT22;25832;45.490;4.912;2023-07-29T11:35:22;23.60;99.90
40123;DHT22;25832;45.490;4.912;2023-07-29T11:37:49;23.50;99.90
40123;DHT22;25832;45.490;4.912;2023-07-29T11:40:19;23.40;99.90
40123;DHT22;25832;45.490;4.912;2023-07-29T11:42:46;23.30;99.90
40123;DHT22;25832;45.490;4.912;2023-07-29T11:45:13;23.20;99.90
40123;DHT22;25832;45.490;4.912;2023-07-29T11:47:39;23.10;99.90
40123;DHT22;25832;45.490;4.912;2023-07-29T11:50:09;23.10;99.90
40123;DHT22;25832;45.490;4.912;2023-07-29T11:52:40;23.10;99.90
40123;DHT22;25832;45.490;4.912;2023-07-29T11:55:06;23.30;99.90
40123;DHT22;25832;45.490;4.912;2023-07-29T11:57:36;23.50;99.90
40123;DHT22;25832;45.490;4.912;2023-07-29T12:00:07;23.60;99.90
40123;DHT22;25832;45.490;4.912;2023-07-29T12:02:42;23.70;99.90
40123;DHT22;25832;45.490;4.912;2023-07-29T12:05:10;23.70;99.90
40123;DHT22;25832;45.490;4.912;2023-07-29T12:07:38;23.70;99.90
40123;DHT22;25832;45.490;4.912;2023-07-29T12:10:05;23.60;99.90
40123;DHT22;25832;45.490;4.912;2023-07-29T12:12:31;23.50;99.90
40123;DHT22;25832;45.490;4.912;2023-07-29T12:14:57;23.40;99.90
40123;DHT22;25832;45.490;4.912;2023-07-29T12:17:23;23.30;99.90
40123;DHT22;25832;45.490;4.912;2023-07-29T12:19:48;23.20;99.90
40123;DHT22;25832;45.490;4.912;2023-07-29T12:22:19;23.00;99.90
40123;DHT22;25832;45.490;4.912;2023-07-29T12:24:44;22.90;99.90
40123;DHT22;25832;45.490;4.912;2023-07-29T12:27:12;22.90;99.90
40123;DHT22;25832;45.490;4.912;2023-07-29T12:29:44;22.90;99.90
40123;DHT22;25832;45.490;4.912;2023-07-29T12:32:11;23.00;99.90
40123;DHT22;25832;45.490;4.912;2023-07-29T12:34:38;23.30;99.90
40123;DHT22;25832;45.490;4.912;2023-07-29T12:37:07;23.60;99.90
40123;DHT22;25832;45.490;4.912;2023-07-29T12:39:35;23.80;99.90
40123;DHT22;25832;45.490;4.912;2023-07-29T12:42:02;23.70;99.90
40123;DHT22;25832;45.490;4.912;2023-07-29T12:44:33;23.60;99.90
40123;DHT22;25832;45.490;4.912;2023-07-29T12:47:01;23.60;99.90
40123;DHT22;25832;45.490;4.912;2023-07-29T12:49:28;23.50;99.90
40123;DHT22;25832;45.490;4.912;2023-07-29T12:51:58;23.50;99.90
40123;DHT22;25832;45.490;4.912;2023-07-29T12:54:24;23.60;99.90
40123;DHT22;25832;45.490;4.912;2023-07-29T12:56:49;23.60;99.90
40123;DHT22;25832;45.490;4.912;2023-07-29T12:59:15;23.70;99.90
40123;DHT22;25832;45.490;4.912;2023-07-29T13:01:41;23.80;99.90
40123;DHT22;25832;45.490;4.912;2023-07-29T13:04:07;23.90;99.90
40123;DHT22;25832;45.490;4.912;2023-07-29T13:06:32;24.10;99.90
40123;DHT22;25832;45.490;4.912;2023-07-29T13:08:58;24.40;99.90
40123;DHT22;25832;45.490;4.912;2023-07-29T13:11:24;24.80;99.90
40123;DHT22;25832;45.490;4.912;2023-07-29T13:13:49;25.00;99.90
40123;DHT22;25832;45.490;4.912;2023-07-29T13:16:15;25.20;99.90
40123;DHT22;25832;45.490;4.912;2023-07-29T13:18:41;25.20;99.90
40123;DHT22;25832;45.490;4.912;2023-07-29T13:21:08;25.20;99.90
40123;DHT22;25832;45.490;4.912;2023-07-29T13:23:34;25.20;99.90
40123;DHT22;25832;45.490;4.912;2023-07-29T13:25:59;25.30;99.90
40123;DHT22;25832;45.490;4.912;2023-07-29T13:28:25;25.40;99.90
40123;DHT22;25832;45.490;4.912;2023-07-29T13:30:51;25.60;99.90
40123;DHT22;25832;45.490;4.912;2023-07-29T13:33:16;25.80;99.90
40123;DHT22;25832;45.490;4.912;2023-07-29T13:35:42;25.90;98.50
40123;DHT22;25832;45.490;4.912;2023-07-29T13:38:08;25.80;99.80
40123;DHT22;25832;45.490;4.912;2023-07-29T13:40:34;25.90;99.40
40123;DHT22;25832;45.490;4.912;2023-07-29T13:43:00;25.90;99.40
40123;DHT22;25832;45.490;4.912;2023-07-29T13:45:26;25.80;98.50
40123;DHT22;25832;45.490;4.912;2023-07-29T13:47:51;25.70;98.60
40123;DHT22;25832;45.490;4.912;2023-07-29T13:50:17;25.60;99.70
40123;DHT22;25832;45.490;4.912;2023-07-29T13:52:44;25.60;99.00
40123;DHT22;25832;45.490;4.912;2023-07-29T13:55:10;25.70;98.90
40123;DHT22;25832;45.490;4.912;2023-07-29T13:57:37;25.90;98.40
40123;DHT22;25832;45.490;4.912;2023-07-29T14:00:03;25.90;96.70
40123;DHT22;25832;45.490;4.912;2023-07-29T14:02:29;25.90;96.80
40123;DHT22;25832;45.490;4.912;2023-07-29T14:04:56;25.90;97.60
40123;DHT22;25832;45.490;4.912;2023-07-29T14:07:22;25.90;96.90
40123;DHT22;25832;45.490;4.912;2023-07-29T14:09:48;26.00;97.60
40123;DHT22;25832;45.490;4.912;2023-07-29T14:12:13;26.10;96.90
40123;DHT22;25832;45.490;4.912;2023-07-29T14:14:40;26.10;97.10
40123;DHT22;25832;45.490;4.912;2023-07-29T14:17:06;26.30;97.00
40123;DHT22;25832;45.490;4.912;2023-07-29T14:19:34;26.60;95.70
40123;DHT22;25832;45.490;4.912;2023-07-29T14:21:59;26.60;95.50
40123;DHT22;25832;45.490;4.912;2023-07-29T14:24:25;26.50;94.90
40123;DHT22;25832;45.490;4.912;2023-07-29T14:26:51;26.40;94.40
40123;DHT22;25832;45.490;4.912;2023-07-29T14:29:16;26.30;94.50
40123;DHT22;25832;45.490;4.912;2023-07-29T14:31:42;26.10;95.70
40123;DHT22;25832;45.490;4.912;2023-07-29T14:34:09;26.00;96.30
40123;DHT22;25832;45.490;4.912;2023-07-29T14:36:34;25.90;97.30
40123;DHT22;25832;45.490;4.912;2023-07-29T14:39:00;25.70;98.30
40123;DHT22;25832;45.490;4.912;2023-07-29T14:41:26;25.40;97.30
40123;DHT22;25832;45.490;4.912;2023-07-29T14:43:51;25.00;97.30
40123;DHT22;25832;45.490;4.912;2023-07-29T14:46:17;24.80;98.60
40123;DHT22;25832;45.490;4.912;2023-07-29T14:48:43;24.60;98.70
40123;DHT22;25832;45.490;4.912;2023-07-29T14:51:08;24.60;99.40
40123;DHT22;25832;45.490;4.912;2023-07-29T14:53:34;24.60;99.90
40123;DHT22;25832;45.490;4.912;2023-07-29T14:56:00;24.50;99.90
40123;DHT22;25832;45.490;4.912;2023-07-29T14:58:25;24.30;99.90
40123;DHT22;25832;45.490;4.912;2023-07-29T15:00:52;24.10;99.90
40123;DHT22;25832;45.490;4.912;2023-07-29T15:03:17;23.80;99.90
40123;DHT22;25832;45.490;4.912;2023-07-29T15:05:43;23.80;99.90
40123;DHT22;25832;45.490;4.912;2023-07-29T15:08:09;23.80;99.90
40123;DHT22;25832;45.490;4.912;2023-07-29T15:10:35;23.90;99.90
40123;DHT22;25832;45.490;4.912;2023-07-29T15:13:00;23.90;99.90
40123;DHT22;25832;45.490;4.912;2023-07-29T15:15:26;23.90;99.90
40123;DHT22;25832;45.490;4.912;2023-07-29T15:17:52;23.90;99.90
40123;DHT22;25832;45.490;4.912;2023-07-29T15:20:17;24.00;99.90
40123;DHT22;25832;45.490;4.912;2023-07-29T15:22:43;24.10;99.90
40123;DHT22;25832;45.490;4.912;2023-07-29T15:25:09;24.20;99.90
40123;DHT22;25832;45.490;4.912;2023-07-29T15:27:35;24.30;99.90
40123;DHT22;25832;45.490;4.912;2023-07-29T15:30:01;24.30;99.90
40123;DHT22;25832;45.490;4.912;2023-07-29T15:32:26;24.20;99.90
40123;DHT22;25832;45.490;4.912;2023-07-29T15:34:53;24.20;99.90
40123;DHT22;25832;45.490;4.912;2023-07-29T15:37:19;24.10;99.90
40123;DHT22;25832;45.490;4.912;2023-07-29T15:39:45;24.10;99.90
40123;DHT22;25832;45.490;4.912;2023-07-29T15:42:10;24.30;99.90
40123;DHT22;25832;45.490;4.912;2023-07-29T15:44:36;24.30;99.90
40123;DHT22;25832;45.490;4.912;2023-07-29T15:47:05;24.30;99.90